sensor_id;sensor_type;location;lat;lon;timestamp;temperature;humidity
49861;DHT22;35761;48.826;9.238;2023-05-10T00:02:08;15.10;65.60
49861;DHT22;35761;48.826;9.238;2023-05-10T00:04:41;15.00;62.30
49861;DHT22;35761;48.826;9.238;2023-05-10T00:07:12;15.00;64.00
49861;DHT22;35761;48.826;9.238;2023-05-10T00:09:44;14.90;61.80
49861;DHT22;35761;48.826;9.238;2023-05-10T00:12:14;14.90;58.10
49861;DHT22;35761;48.826;9.238;2023-05-10T00:14:45;14.80;58.50
49861;DHT22;35761;48.826;9.238;2023-05-10T00:17:15;14.60;65.10
49861;DHT22;35761;48.826;9.238;2023-05-10T00:19:48;14.60;60.50
49861;DHT22;35761;48.826;9.238;2023-05-10T00:22:19;14.50;60.50
49861;DHT22;35761;48.826;9.238;2023-05-10T00:24:49;14.40;59.30
49861;DHT22;35761;48.826;9.238;2023-05-10T00:27:20;14.40;59.90
49861;DHT22;35761;48.826;9.238;2023-05-10T00:29:50;14.40;59.70
49861;DHT22;35761;48.826;9.238;2023-05-10T00:32:21;14.30;60.70
49861;DHT22;35761;48.826;9.238;2023-05-10T00:34:54;14.30;59.40
49861;DHT22;35761;48.826;9.238;2023-05-10T00:37:26;14.30;58.70
49861;DHT22;35761;48.826;9.238;2023-05-10T00:39:57;14.30;59.10
49861;DHT22;35761;48.826;9.238;2023-05-10T00:42:27;14.20;59.40
49861;DHT22;35761;48.826;9.238;2023-05-10T00:44:58;14.20;59.40
49861;DHT22;35761;48.826;9.238;2023-05-10T00:47:29;14.30;59.70
49861;DHT22;35761;48.826;9.238;2023-05-10T00:50:03;14.30;58.90
49861;DHT22;35761;48.826;9.238;2023-05-10T00:52:36;14.20;58.90
49861;DHT22;35761;48.826;9.238;2023-05-10T00:55:08;14.20;58.90
49861;DHT22;35761;48.826;9.238;2023-05-10T00:57:39;14.20;59.20
49861;DHT22;35761;48.826;9.238;2023-05-10T01:00:11;14.20;59.10
49861;DHT22;35761;48.826;9.238;2023-05-10T01:02:46;14.10;59.50
49861;DHT22;35761;48.826;9.238;2023-05-10T01:05:20;14.20;91.80
49861;DHT22;35761;48.826;9.238;2023-05-10T01:07:51;14.10;72.60
49861;DHT22;35761;48.826;9.238;2023-05-10T01:14:41;13.90;58.50
49861;DHT22;35761;48.826;9.238;2023-05-10T01:17:12;13.90;59.50
49861;DHT22;35761;48.826;9.238;2023-05-10T01:19:43;13.90;59.60
49861;DHT22;35761;48.826;9.238;2023-05-10T01:22:30;13.90;58.30
49861;DHT22;35761;48.826;9.238;2023-05-10T01:25:31;13.90;57.40
49861;DHT22;35761;48.826;9.238;2023-05-10T01:31:08;13.70;57.60
49861;DHT22;35761;48.826;9.238;2023-05-10T01:33:59;13.70;58.60
49861;DHT22;35761;48.826;9.238;2023-05-10T01:36:35;13.70;58.50
49861;DHT22;35761;48.826;9.238;2023-05-10T01:39:14;13.60;58.60
49861;DHT22;35761;48.826;9.238;2023-05-10T01:41:51;13.60;59.20
49861;DHT22;35761;48.826;9.238;2023-05-10T01:44:31;13.60;59.60
49861;DHT22;35761;48.826;9.238;2023-05-10T01:47:09;13.60;59.20
49861;DHT22;35761;48.826;9.238;2023-05-10T01:49:47;13.60;59.90
49861;DHT22;35761;48.826;9.238;2023-05-10T01:52:22;13.50;60.40
49861;DHT22;35761;48.826;9.238;2023-05-10T01:54:59;13.60;60.20
49861;DHT22;35761;48.826;9.238;2023-05-10T01:57:34;13.50;60.50
49861;DHT22;35761;48.826;9.238;2023-05-10T02:00:08;13.50;60.30
49861;DHT22;35761;48.826;9.238;2023-05-10T02:02:44;13.50;61.10
49861;DHT22;35761;48.826;9.238;2023-05-10T02:05:19;13.50;60.80
49861;DHT22;35761;48.826;9.238;2023-05-10T02:07:51;13.50;61.40
49861;DHT22;35761;48.826;9.238;2023-05-10T02:10:22;13.50;61.80
49861;DHT22;35761;48.826;9.238;2023-05-10T02:12:53;13.50;62.10
49861;DHT22;35761;48.826;9.238;2023-05-10T02:15:26;13.50;61.50
49861;DHT22;35761;48.826;9.238;2023-05-10T02:17:58;13.50;61.90
49861;DHT22;35761;48.826;9.238;2023-05-10T02:20:33;13.40;62.30
49861;DHT22;35761;48.826;9.238;2023-05-10T02:23:05;13.40;62.70
49861;DHT22;35761;48.826;9.238;2023-05-10T02:25:37;13.40;63.10
49861;DHT22;35761;48.826;9.238;2023-05-10T02:28:08;13.30;62.80
49861;DHT22;35761;48.826;9.238;2023-05-10T02:30:41;13.40;63.10
49861;DHT22;35761;48.826;9.238;2023-05-10T02:33:13;13.40;62.80
49861;DHT22;35761;48.826;9.238;2023-05-10T02:35:48;13.30;62.30
49861;DHT22;35761;48.826;9.238;2023-05-10T02:38:20;13.30;63.00
49861;DHT22;35761;48.826;9.238;2023-05-10T02:40:52;13.30;62.90
49861;DHT22;35761;48.826;9.238;2023-05-10T02:43:25;13.30;63.10
49861;DHT22;35761;48.826;9.238;2023-05-10T02:45:56;13.30;63.50
49861;DHT22;35761;48.826;9.238;2023-05-10T02:48:27;13.30;63.90
49861;DHT22;35761;48.826;9.238;2023-05-10T02:51:05;13.30;64.40
49861;DHT22;35761;48.826;9.238;2023-05-10T02:53:38;13.30;64.90
49861;DHT22;35761;48.826;9.238;2023-05-10T02:56:14;13.20;65.10
49861;DHT22;35761;48.826;9.238;2023-05-10T02:58:48;13.20;64.80
49861;DHT22;35761;48.826;9.238;2023-05-10T03:01:19;13.20;65.00
49861;DHT22;35761;48.826;9.238;2023-05-10T03:03:49;13.20;65.20
49861;DHT22;35761;48.826;9.238;2023-05-10T03:06:23;13.20;65.50
49861;DHT22;35761;48.826;9.238;2023-05-10T03:08:54;13.10;65.40
49861;DHT22;35761;48.826;9.238;2023-05-10T03:11:34;13.20;65.40
49861;DHT22;35761;48.826;9.238;2023-05-10T03:14:21;13.20;64.60
49861;DHT22;35761;48.826;9.238;2023-05-10T03:17:00;13.20;64.80
49861;DHT22;35761;48.826;9.238;2023-05-10T03:19:43;13.10;64.70
49861;DHT22;35761;48.826;9.238;2023-05-10T03:22:24;13.20;64.90
49861;DHT22;35761;48.826;9.238;2023-05-10T03:24:57;13.10;65.30
49861;DHT22;35761;48.826;9.238;2023-05-10T03:27:31;13.10;65.50
49861;DHT22;35761;48.826;9.238;2023-05-10T03:30:03;13.10;65.80
49861;DHT22;35761;48.826;9.238;2023-05-10T03:32:36;13.10;66.00
49861;DHT22;35761;48.826;9.238;2023-05-10T03:35:07;13.10;65.90
49861;DHT22;35761;48.826;9.238;2023-05-10T03:37:41;13.10;66.00
49861;DHT22;35761;48.826;9.238;2023-05-10T03:40:12;13.10;66.00
49861;DHT22;35761;48.826;9.238;2023-05-10T03:42:43;13.10;66.10
49861;DHT22;35761;48.826;9.238;2023-05-10T03:45:14;13.10;66.50
49861;DHT22;35761;48.826;9.238;2023-05-10T03:47:44;13.10;66.00
49861;DHT22;35761;48.826;9.238;2023-05-10T03:50:16;13.10;66.30
49861;DHT22;35761;48.826;9.238;2023-05-10T03:52:50;13.10;66.00
49861;DHT22;35761;48.826;9.238;2023-05-10T03:55:21;13.20;65.00
49861;DHT22;35761;48.826;9.238;2023-05-10T03:57:52;13.10;64.80
49861;DHT22;35761;48.826;9.238;2023-05-10T04:00:23;13.10;64.90
49861;DHT22;35761;48.826;9.238;2023-05-10T04:02:55;13.20;65.50
49861;DHT22;35761;48.826;9.238;2023-05-10T04:05:25;13.10;65.70
49861;DHT22;35761;48.826;9.238;2023-05-10T04:07:58;13.10;65.00
49861;DHT22;35761;48.826;9.238;2023-05-10T04:10:29;13.10;65.50
49861;DHT22;35761;48.826;9.238;2023-05-10T04:13:00;13.10;66.10
49861;DHT22;35761;48.826;9.238;2023-05-10T04:15:30;13.10;65.90
49861;DHT22;35761;48.826;9.238;2023-05-10T04:18:01;13.10;66.30
49861;DHT22;35761;48.826;9.238;2023-05-10T04:20:34;13.10;66.40
49861;DHT22;35761;48.826;9.238;2023-05-10T04:23:08;13.00;66.40
49861;DHT22;35761;48.826;9.238;2023-05-10T04:25:38;13.00;66.10
49861;DHT22;35761;48.826;9.238;2023-05-10T04:28:08;13.00;66.20
49861;DHT22;35761;48.826;9.238;2023-05-10T04:30:39;13.00;66.40
49861;DHT22;35761;48.826;9.238;2023-05-10T04:33:10;13.00;66.50
49861;DHT22;35761;48.826;9.238;2023-05-10T04:35:41;13.00;66.00
49861;DHT22;35761;48.826;9.238;2023-05-10T04:38:14;13.00;65.80
49861;DHT22;35761;48.826;9.238;2023-05-10T04:40:45;13.00;66.60
49861;DHT22;35761;48.826;9.238;2023-05-10T04:43:15;13.00;66.50
49861;DHT22;35761;48.826;9.238;2023-05-10T04:45:47;12.90;66.60
49861;DHT22;35761;48.826;9.238;2023-05-10T04:48:18;12.90;66.60
49861;DHT22;35761;48.826;9.238;2023-05-10T04:50:48;12.90;66.60
49861;DHT22;35761;48.826;9.238;2023-05-10T04:53:21;12.80;67.00
49861;DHT22;35761;48.826;9.238;2023-05-10T04:55:52;12.80;67.70
49861;DHT22;35761;48.826;9.238;2023-05-10T04:58:23;12.80;68.30
49861;DHT22;35761;48.826;9.238;2023-05-10T05:00:53;12.80;67.80
49861;DHT22;35761;48.826;9.238;2023-05-10T05:03:24;12.90;68.10
49861;DHT22;35761;48.826;9.238;2023-05-10T05:05:56;12.90;68.50
49861;DHT22;35761;48.826;9.238;2023-05-10T05:08:29;12.90;68.50
49861;DHT22;35761;48.826;9.238;2023-05-10T05:10:59;12.90;68.30
49861;DHT22;35761;48.826;9.238;2023-05-10T05:13:30;12.90;68.00
49861;DHT22;35761;48.826;9.238;2023-05-10T05:16:01;13.00;68.20
49861;DHT22;35761;48.826;9.238;2023-05-10T05:18:32;13.00;68.30
49861;DHT22;35761;48.826;9.238;2023-05-10T05:21:03;13.00;68.10
49861;DHT22;35761;48.826;9.238;2023-05-10T05:23:36;13.00;67.90
49861;DHT22;35761;48.826;9.238;2023-05-10T05:26:06;12.90;68.60
49861;DHT22;35761;48.826;9.238;2023-05-10T05:28:37;13.00;68.10
49861;DHT22;35761;48.826;9.238;2023-05-10T05:31:08;13.00;68.50
49861;DHT22;35761;48.826;9.238;2023-05-10T05:33:39;13.10;66.80
49861;DHT22;35761;48.826;9.238;2023-05-10T05:36:10;13.10;67.10
49861;DHT22;35761;48.826;9.238;2023-05-10T05:38:43;13.10;67.30
49861;DHT22;35761;48.826;9.238;2023-05-10T05:41:14;13.10;67.10
49861;DHT22;35761;48.826;9.238;2023-05-10T05:43:44;13.20;67.50
49861;DHT22;35761;48.826;9.238;2023-05-10T05:46:14;13.20;67.20
49861;DHT22;35761;48.826;9.238;2023-05-10T05:48:45;13.20;67.20
49861;DHT22;35761;48.826;9.238;2023-05-10T05:51:16;13.20;66.30
49861;DHT22;35761;48.826;9.238;2023-05-10T05:53:49;13.20;65.70
49861;DHT22;35761;48.826;9.238;2023-05-10T05:56:20;13.20;66.60
49861;DHT22;35761;48.826;9.238;2023-05-10T05:58:51;13.20;66.80
49861;DHT22;35761;48.826;9.238;2023-05-10T06:01:22;13.30;66.10
49861;DHT22;35761;48.826;9.238;2023-05-10T06:03:52;13.30;66.50
49861;DHT22;35761;48.826;9.238;2023-05-10T06:06:23;13.30;66.10
49861;DHT22;35761;48.826;9.238;2023-05-10T06:08:56;13.30;65.70
49861;DHT22;35761;48.826;9.238;2023-05-10T06:11:27;13.20;65.80
49861;DHT22;35761;48.826;9.238;2023-05-10T06:13:59;13.30;65.30
49861;DHT22;35761;48.826;9.238;2023-05-10T06:16:31;13.30;66.40
49861;DHT22;35761;48.826;9.238;2023-05-10T06:19:01;13.30;65.60
49861;DHT22;35761;48.826;9.238;2023-05-10T06:21:32;13.30;65.50
49861;DHT22;35761;48.826;9.238;2023-05-10T06:24:06;13.40;65.70
49861;DHT22;35761;48.826;9.238;2023-05-10T06:26:36;13.40;66.00
49861;DHT22;35761;48.826;9.238;2023-05-10T06:29:07;13.40;65.10
49861;DHT22;35761;48.826;9.238;2023-05-10T06:31:37;13.40;65.30
49861;DHT22;35761;48.826;9.238;2023-05-10T06:34:08;13.40;62.70
49861;DHT22;35761;48.826;9.238;2023-05-10T06:36:38;13.50;62.50
49861;DHT22;35761;48.826;9.238;2023-05-10T06:39:12;13.50;61.40
49861;DHT22;35761;48.826;9.238;2023-05-10T06:41:43;13.40;61.40
49861;DHT22;35761;48.826;9.238;2023-05-10T06:44:13;13.40;62.40
49861;DHT22;35761;48.826;9.238;2023-05-10T06:46:44;13.40;62.40
49861;DHT22;35761;48.826;9.238;2023-05-10T06:49:14;13.40;62.80
49861;DHT22;35761;48.826;9.238;2023-05-10T06:51:45;13.50;63.40
49861;DHT22;35761;48.826;9.238;2023-05-10T06:54:18;13.50;63.10
49861;DHT22;35761;48.826;9.238;2023-05-10T06:56:48;13.50;63.30
49861;DHT22;35761;48.826;9.238;2023-05-10T06:59:19;13.50;63.20
49861;DHT22;35761;48.826;9.238;2023-05-10T07:01:49;13.50;62.90
49861;DHT22;35761;48.826;9.238;2023-05-10T07:04:21;13.50;62.40
49861;DHT22;35761;48.826;9.238;2023-05-10T07:06:51;13.60;61.60
49861;DHT22;35761;48.826;9.238;2023-05-10T07:09:24;13.60;61.50
49861;DHT22;35761;48.826;9.238;2023-05-10T07:11:55;13.60;62.70
49861;DHT22;35761;48.826;9.238;2023-05-10T07:14:25;13.60;60.40
49861;DHT22;35761;48.826;9.238;2023-05-10T07:16:56;13.60;60.00
49861;DHT22;35761;48.826;9.238;2023-05-10T07:19:26;13.60;59.80
49861;DHT22;35761;48.826;9.238;2023-05-10T07:21:57;13.70;60.60
49861;DHT22;35761;48.826;9.238;2023-05-10T07:24:30;13.80;58.90
49861;DHT22;35761;48.826;9.238;2023-05-10T07:27:01;13.80;55.90
49861;DHT22;35761;48.826;9.238;2023-05-10T07:29:32;13.80;56.70
49861;DHT22;35761;48.826;9.238;2023-05-10T07:32:03;13.80;57.70
49861;DHT22;35761;48.826;9.238;2023-05-10T07:34:34;13.90;58.50
49861;DHT22;35761;48.826;9.238;2023-05-10T07:37:05;13.80;56.40
49861;DHT22;35761;48.826;9.238;2023-05-10T07:39:38;13.80;55.10
49861;DHT22;35761;48.826;9.238;2023-05-10T07:42:09;13.90;55.50
49861;DHT22;35761;48.826;9.238;2023-05-10T07:44:39;13.90;54.70
49861;DHT22;35761;48.826;9.238;2023-05-10T07:47:10;13.90;55.30
49861;DHT22;35761;48.826;9.238;2023-05-10T07:49:40;14.00;56.30
49861;DHT22;35761;48.826;9.238;2023-05-10T07:52:11;14.10;53.70
49861;DHT22;35761;48.826;9.238;2023-05-10T07:54:44;14.10;54.40
49861;DHT22;35761;48.826;9.238;2023-05-10T07:57:15;14.10;52.50
49861;DHT22;35761;48.826;9.238;2023-05-10T07:59:46;14.20;52.20
49861;DHT22;35761;48.826;9.238;2023-05-10T08:02:16;14.10;51.60
49861;DHT22;35761;48.826;9.238;2023-05-10T08:04:47;14.20;52.80
49861;DHT22;35761;48.826;9.238;2023-05-10T08:07:17;14.20;53.50
49861;DHT22;35761;48.826;9.238;2023-05-10T08:09:50;14.20;53.40
49861;DHT22;35761;48.826;9.238;2023-05-10T08:12:21;14.30;52.80
49861;DHT22;35761;48.826;9.238;2023-05-10T08:14:51;14.40;53.20
49861;DHT22;35761;48.826;9.238;2023-05-10T08:17:22;14.50;50.80
49861;DHT22;35761;48.826;9.238;2023-05-10T08:19:53;14.50;50.00
49861;DHT22;35761;48.826;9.238;2023-05-10T08:22:23;14.60;46.90
49861;DHT22;35761;48.826;9.238;2023-05-10T08:24:56;14.60;46.50
49861;DHT22;35761;48.826;9.238;2023-05-10T08:27:27;14.60;45.90
49861;DHT22;35761;48.826;9.238;2023-05-10T08:29:57;14.60;46.70
49861;DHT22;35761;48.826;9.238;2023-05-10T08:32:28;14.50;47.80
49861;DHT22;35761;48.826;9.238;2023-05-10T08:34:58;14.70;45.30
49861;DHT22;35761;48.826;9.238;2023-05-10T08:37:30;14.70;46.00
49861;DHT22;35761;48.826;9.238;2023-05-10T08:40:03;14.70;46.00
49861;DHT22;35761;48.826;9.238;2023-05-10T08:42:36;14.70;46.10
49861;DHT22;35761;48.826;9.238;2023-05-10T08:45:08;14.80;44.40
49861;DHT22;35761;48.826;9.238;2023-05-10T08:47:40;14.90;44.10
49861;DHT22;35761;48.826;9.238;2023-05-10T08:50:11;14.80;43.50
49861;DHT22;35761;48.826;9.238;2023-05-10T08:52:43;14.90;41.10
49861;DHT22;35761;48.826;9.238;2023-05-10T08:55:18;14.90;41.20
49861;DHT22;35761;48.826;9.238;2023-05-10T08:57:50;14.90;40.70
49861;DHT22;35761;48.826;9.238;2023-05-10T09:00:21;14.90;40.50
49861;DHT22;35761;48.826;9.238;2023-05-10T09:02:53;14.90;40.60
49861;DHT22;35761;48.826;9.238;2023-05-10T09:05:24;15.00;39.80
49861;DHT22;35761;48.826;9.238;2023-05-10T09:07:55;15.00;40.70
49861;DHT22;35761;48.826;9.238;2023-05-10T09:10:29;15.00;41.40
49861;DHT22;35761;48.826;9.238;2023-05-10T09:13:01;15.00;40.50
49861;DHT22;35761;48.826;9.238;2023-05-10T09:15:32;15.20;39.60
49861;DHT22;35761;48.826;9.238;2023-05-10T09:18:02;15.20;39.10
49861;DHT22;35761;48.826;9.238;2023-05-10T09:20:33;15.30;39.10
49861;DHT22;35761;48.826;9.238;2023-05-10T09:23:03;15.40;39.60
49861;DHT22;35761;48.826;9.238;2023-05-10T09:25:37;15.30;40.80
49861;DHT22;35761;48.826;9.238;2023-05-10T09:28:08;15.30;40.00
49861;DHT22;35761;48.826;9.238;2023-05-10T09:30:39;15.40;38.80
49861;DHT22;35761;48.826;9.238;2023-05-10T09:33:10;15.50;37.50
49861;DHT22;35761;48.826;9.238;2023-05-10T09:35:40;15.60;36.70
49861;DHT22;35761;48.826;9.238;2023-05-10T09:38:11;15.50;37.20
49861;DHT22;35761;48.826;9.238;2023-05-10T09:40:51;15.40;38.00
49861;DHT22;35761;48.826;9.238;2023-05-10T09:43:24;15.40;37.90
49861;DHT22;35761;48.826;9.238;2023-05-10T09:45:55;15.60;37.60
49861;DHT22;35761;48.826;9.238;2023-05-10T09:48:25;15.60;38.80
49861;DHT22;35761;48.826;9.238;2023-05-10T09:50:57;15.70;37.30
49861;DHT22;35761;48.826;9.238;2023-05-10T09:53:28;15.90;34.70
49861;DHT22;35761;48.826;9.238;2023-05-10T09:56:01;15.90;34.50
49861;DHT22;35761;48.826;9.238;2023-05-10T09:58:36;15.90;34.50
49861;DHT22;35761;48.826;9.238;2023-05-10T10:01:11;15.80;34.40
49861;DHT22;35761;48.826;9.238;2023-05-10T10:03:42;15.80;35.30
49861;DHT22;35761;48.826;9.238;2023-05-10T10:06:18;15.80;36.20
49861;DHT22;35761;48.826;9.238;2023-05-10T10:08:56;15.80;36.30
49861;DHT22;35761;48.826;9.238;2023-05-10T10:11:29;15.80;35.50
49861;DHT22;35761;48.826;9.238;2023-05-10T10:14:00;15.70;36.90
49861;DHT22;35761;48.826;9.238;2023-05-10T10:16:31;15.80;37.30
49861;DHT22;35761;48.826;9.238;2023-05-10T10:19:02;15.80;37.40
49861;DHT22;35761;48.826;9.238;2023-05-10T10:21:33;15.80;35.90
49861;DHT22;35761;48.826;9.238;2023-05-10T10:24:03;15.90;34.00
49861;DHT22;35761;48.826;9.238;2023-05-10T10:26:37;15.80;33.10
49861;DHT22;35761;48.826;9.238;2023-05-10T10:29:18;15.70;33.30
49861;DHT22;35761;48.826;9.238;2023-05-10T10:31:57;15.70;34.30
49861;DHT22;35761;48.826;9.238;2023-05-10T10:34:34;15.60;35.10
49861;DHT22;35761;48.826;9.238;2023-05-10T10:37:05;15.70;34.80
49861;DHT22;35761;48.826;9.238;2023-05-10T10:39:36;15.80;36.30
49861;DHT22;35761;48.826;9.238;2023-05-10T10:42:09;15.90;36.60
49861;DHT22;35761;48.826;9.238;2023-05-10T10:44:40;15.90;35.40
49861;DHT22;35761;48.826;9.238;2023-05-10T10:47:23;16.00;36.10
49861;DHT22;35761;48.826;9.238;2023-05-10T10:50:04;16.00;35.50
49861;DHT22;35761;48.826;9.238;2023-05-10T10:52:37;16.10;36.00
49861;DHT22;35761;48.826;9.238;2023-05-10T10:55:09;16.20;34.40
49861;DHT22;35761;48.826;9.238;2023-05-10T10:57:48;16.10;31.30
49861;DHT22;35761;48.826;9.238;2023-05-10T11:00:24;16.10;32.30
49861;DHT22;35761;48.826;9.238;2023-05-10T11:02:59;16.10;32.60
49861;DHT22;35761;48.826;9.238;2023-05-10T11:05:39;16.10;29.90
49861;DHT22;35761;48.826;9.238;2023-05-10T11:08:18;16.10;30.10
49861;DHT22;35761;48.826;9.238;2023-05-10T11:11:04;16.00;30.70
49861;DHT22;35761;48.826;9.238;2023-05-10T11:13:42;15.90;28.30
49861;DHT22;35761;48.826;9.238;2023-05-10T11:16:18;15.90;28.40
49861;DHT22;35761;48.826;9.238;2023-05-10T11:18:59;15.90;28.40
49861;DHT22;35761;48.826;9.238;2023-05-10T11:21:32;15.80;28.50
49861;DHT22;35761;48.826;9.238;2023-05-10T11:24:13;15.90;28.10
49861;DHT22;35761;48.826;9.238;2023-05-10T11:26:44;15.80;28.40
49861;DHT22;35761;48.826;9.238;2023-05-10T11:29:17;15.70;29.40
49861;DHT22;35761;48.826;9.238;2023-05-10T11:31:51;15.80;29.20
49861;DHT22;35761;48.826;9.238;2023-05-10T11:34:26;15.90;29.70
49861;DHT22;35761;48.826;9.238;2023-05-10T11:36:58;16.00;28.90
49861;DHT22;35761;48.826;9.238;2023-05-10T11:39:30;16.10;28.20
49861;DHT22;35761;48.826;9.238;2023-05-10T11:42:01;16.00;29.20
49861;DHT22;35761;48.826;9.238;2023-05-10T11:44:34;16.00;28.70
49861;DHT22;35761;48.826;9.238;2023-05-10T11:47:05;16.10;27.90
49861;DHT22;35761;48.826;9.238;2023-05-10T11:49:36;16.10;28.20
49861;DHT22;35761;48.826;9.238;2023-05-10T11:52:07;16.10;28.50
49861;DHT22;35761;48.826;9.238;2023-05-10T11:54:45;16.20;29.20
49861;DHT22;35761;48.826;9.238;2023-05-10T11:57:18;16.30;27.90
49861;DHT22;35761;48.826;9.238;2023-05-10T11:59:53;16.30;27.30
49861;DHT22;35761;48.826;9.238;2023-05-10T12:02:24;16.20;27.30
49861;DHT22;35761;48.826;9.238;2023-05-10T12:04:55;16.20;26.30
49861;DHT22;35761;48.826;9.238;2023-05-10T12:07:26;16.20;26.40
49861;DHT22;35761;48.826;9.238;2023-05-10T12:10:07;16.20;27.40
49861;DHT22;35761;48.826;9.238;2023-05-10T12:12:40;16.20;26.70
49861;DHT22;35761;48.826;9.238;2023-05-10T12:15:21;16.10;28.50
49861;DHT22;35761;48.826;9.238;2023-05-10T12:17:52;16.00;28.20
49861;DHT22;35761;48.826;9.238;2023-05-10T12:20:26;15.90;29.20
49861;DHT22;35761;48.826;9.238;2023-05-10T12:22:58;15.80;29.20
49861;DHT22;35761;48.826;9.238;2023-05-10T12:25:31;15.80;29.10
49861;DHT22;35761;48.826;9.238;2023-05-10T12:28:04;15.70;29.40
49861;DHT22;35761;48.826;9.238;2023-05-10T12:30:38;15.80;29.80
49861;DHT22;35761;48.826;9.238;2023-05-10T12:33:10;15.70;29.10
49861;DHT22;35761;48.826;9.238;2023-05-10T12:35:46;15.70;28.30
49861;DHT22;35761;48.826;9.238;2023-05-10T12:38:27;15.70;28.20
49861;DHT22;35761;48.826;9.238;2023-05-10T12:41:00;15.80;27.10
49861;DHT22;35761;48.826;9.238;2023-05-10T12:43:32;15.90;28.40
49861;DHT22;35761;48.826;9.238;2023-05-10T12:46:09;16.00;27.70
49861;DHT22;35761;48.826;9.238;2023-05-10T12:48:41;16.10;28.00
49861;DHT22;35761;48.826;9.238;2023-05-10T12:51:13;16.10;27.60
49861;DHT22;35761;48.826;9.238;2023-05-10T12:53:46;16.10;27.90
49861;DHT22;35761;48.826;9.238;2023-05-10T12:56:16;16.20;26.70
49861;DHT22;35761;48.826;9.238;2023-05-10T12:58:47;16.30;26.60
49861;DHT22;35761;48.826;9.238;2023-05-10T13:01:20;16.30;25.00
49861;DHT22;35761;48.826;9.238;2023-05-10T13:03:51;16.20;25.20
49861;DHT22;35761;48.826;9.238;2023-05-10T13:06:21;16.30;24.80
49861;DHT22;35761;48.826;9.238;2023-05-10T13:08:52;16.30;25.70
49861;DHT22;35761;48.826;9.238;2023-05-10T13:11:24;16.30;26.00
49861;DHT22;35761;48.826;9.238;2023-05-10T13:13:54;16.40;25.00
49861;DHT22;35761;48.826;9.238;2023-05-10T13:16:27;16.30;25.20
49861;DHT22;35761;48.826;9.238;2023-05-10T13:18:58;16.30;25.30
49861;DHT22;35761;48.826;9.238;2023-05-10T13:21:28;16.20;25.40
49861;DHT22;35761;48.826;9.238;2023-05-10T13:23:59;16.30;25.40
49861;DHT22;35761;48.826;9.238;2023-05-10T13:26:30;16.30;25.90
49861;DHT22;35761;48.826;9.238;2023-05-10T13:29:00;16.30;25.70
49861;DHT22;35761;48.826;9.238;2023-05-10T13:31:33;16.30;25.30
49861;DHT22;35761;48.826;9.238;2023-05-10T13:34:05;16.30;25.20
49861;DHT22;35761;48.826;9.238;2023-05-10T13:36:35;16.20;25.50
49861;DHT22;35761;48.826;9.238;2023-05-10T13:39:06;16.20;26.20
49861;DHT22;35761;48.826;9.238;2023-05-10T13:41:37;16.30;25.50
49861;DHT22;35761;48.826;9.238;2023-05-10T13:44:07;16.30;24.50
49861;DHT22;35761;48.826;9.238;2023-05-10T13:46:42;16.30;25.10
49861;DHT22;35761;48.826;9.238;2023-05-10T13:49:12;16.40;25.10
49861;DHT22;35761;48.826;9.238;2023-05-10T13:51:43;16.40;24.80
49861;DHT22;35761;48.826;9.238;2023-05-10T13:54:14;16.50;25.60
49861;DHT22;35761;48.826;9.238;2023-05-10T13:56:46;16.50;25.00
49861;DHT22;35761;48.826;9.238;2023-05-10T13:59:17;16.60;24.70
49861;DHT22;35761;48.826;9.238;2023-05-10T14:01:50;16.60;24.90
49861;DHT22;35761;48.826;9.238;2023-05-10T14:04:21;16.60;25.20
49861;DHT22;35761;48.826;9.238;2023-05-10T14:06:51;16.50;25.70
49861;DHT22;35761;48.826;9.238;2023-05-10T14:09:22;16.50;24.00
49861;DHT22;35761;48.826;9.238;2023-05-10T14:11:53;16.60;23.50
49861;DHT22;35761;48.826;9.238;2023-05-10T14:14:23;16.50;24.60
49861;DHT22;35761;48.826;9.238;2023-05-10T14:16:58;16.50;23.60
49861;DHT22;35761;48.826;9.238;2023-05-10T14:19:28;16.50;23.70
49861;DHT22;35761;48.826;9.238;2023-05-10T14:22:01;16.50;23.50
49861;DHT22;35761;48.826;9.238;2023-05-10T14:24:31;16.40;24.30
49861;DHT22;35761;48.826;9.238;2023-05-10T14:27:02;16.50;25.30
49861;DHT22;35761;48.826;9.238;2023-05-10T14:29:33;16.60;24.80
49861;DHT22;35761;48.826;9.238;2023-05-10T14:32:06;16.70;23.00
49861;DHT22;35761;48.826;9.238;2023-05-10T14:34:37;16.80;23.00
49861;DHT22;35761;48.826;9.238;2023-05-10T14:37:10;16.70;23.50
49861;DHT22;35761;48.826;9.238;2023-05-10T14:39:41;16.80;21.70
49861;DHT22;35761;48.826;9.238;2023-05-10T14:42:12;16.80;20.90
49861;DHT22;35761;48.826;9.238;2023-05-10T14:44:42;16.90;20.20
49861;DHT22;35761;48.826;9.238;2023-05-10T14:47:16;16.70;20.10
49861;DHT22;35761;48.826;9.238;2023-05-10T14:49:46;16.70;20.30
49861;DHT22;35761;48.826;9.238;2023-05-10T14:52:17;16.60;21.60
49861;DHT22;35761;48.826;9.238;2023-05-10T14:54:47;16.50;22.10
49861;DHT22;35761;48.826;9.238;2023-05-10T14:57:18;16.60;22.00
49861;DHT22;35761;48.826;9.238;2023-05-10T14:59:49;16.70;22.50
49861;DHT22;35761;48.826;9.238;2023-05-10T15:02:22;16.70;22.50
49861;DHT22;35761;48.826;9.238;2023-05-10T15:04:53;16.80;22.10
49861;DHT22;35761;48.826;9.238;2023-05-10T15:07:25;16.80;22.10
49861;DHT22;35761;48.826;9.238;2023-05-10T15:09:55;16.90;23.00
49861;DHT22;35761;48.826;9.238;2023-05-10T15:12:26;16.90;23.00
49861;DHT22;35761;48.826;9.238;2023-05-10T15:14:56;16.90;23.00
49861;DHT22;35761;48.826;9.238;2023-05-10T15:17:29;16.90;22.60
49861;DHT22;35761;48.826;9.238;2023-05-10T15:20:00;16.90;23.50
49861;DHT22;35761;48.826;9.238;2023-05-10T15:22:31;16.90;23.00
49861;DHT22;35761;48.826;9.238;2023-05-10T15:25:02;16.90;23.60
49861;DHT22;35761;48.826;9.238;2023-05-10T15:27:33;16.90;23.40
49861;DHT22;35761;48.826;9.238;2023-05-10T15:30:06;17.00;23.20
49861;DHT22;35761;48.826;9.238;2023-05-10T15:32:40;17.00;23.00
49861;DHT22;35761;48.826;9.238;2023-05-10T15:35:11;17.00;23.00
49861;DHT22;35761;48.826;9.238;2023-05-10T15:37:41;17.00;22.50
49861;DHT22;35761;48.826;9.238;2023-05-10T15:40:12;17.00;22.30
49861;DHT22;35761;48.826;9.238;2023-05-10T15:42:42;17.00;23.30
49861;DHT22;35761;48.826;9.238;2023-05-10T15:45:13;17.10;22.70
49861;DHT22;35761;48.826;9.238;2023-05-10T15:47:47;17.10;23.20
49861;DHT22;35761;48.826;9.238;2023-05-10T15:50:18;17.00;23.80
49861;DHT22;35761;48.826;9.238;2023-05-10T15:52:48;17.10;23.70
49861;DHT22;35761;48.826;9.238;2023-05-10T15:55:19;17.10;24.20
49861;DHT22;35761;48.826;9.238;2023-05-10T15:57:49;17.20;23.60
49861;DHT22;35761;48.826;9.238;2023-05-10T16:00:22;17.30;23.20
49861;DHT22;35761;48.826;9.238;2023-05-10T16:02:56;17.30;23.20
49861;DHT22;35761;48.826;9.238;2023-05-10T16:05:27;17.30;22.80
49861;DHT22;35761;48.826;9.238;2023-05-10T16:08:04;17.30;22.50
49861;DHT22;35761;48.826;9.238;2023-05-10T16:10:35;17.30;22.80